Time;durP1;ratioP1;P1;durP2;ratioP2;P2;SDS_P1;SDS_P2;PMS_P1;PMS_P2;Temp;Humidity;BMP_temperature;BMP_pressure;BME280_temperature;BME280_humidity;BME280_pressure;Samples;Min_cycle;Max_cycle;Signal;HPM_P1;HPM_P2
2023/01/14 00:02:25;;;;;;;20.65;4.00;;;7.00;99.90;;;;;;4919434;29;20040;-76
2023/01/14 00:04:50;;;;;;;14.45;3.70;;;7.00;99.90;;;;;;4916708;29;20043;-76
2023/01/14 00:07:16;;;;;;;10.23;4.03;;;7.00;99.90;;;;;;4919041;28;20067;-78
2023/01/14 00:09:42;;;;;;;17.65;4.78;;;7.10;99.90;;;;;;4919423;28;20104;-78
2023/01/14 00:12:08;;;;;;;10.38;3.28;;;7.10;99.90;;;;;;4918229;29;20044;-77
2023/01/14 00:14:34;;;;;;;5.03;2.97;;;7.10;99.90;;;;;;4920880;28;20040;-76
2023/01/14 00:17:00;;;;;;;8.77;3.03;;;7.10;99.90;;;;;;4920415;29;20051;-78
2023/01/14 00:19:27;;;;;;;9.35;2.95;;;7.10;99.90;;;;;;4916323;28;20079;-78
2023/01/14 00:21:55;;;;;;;9.38;3.45;;;7.10;99.90;;;;;;4902935;29;20044;-78
2023/01/14 00:24:21;;;;;;;14.32;2.50;;;7.10;99.90;;;;;;4902780;29;20044;-75
2023/01/14 00:26:52;;;;;;;5.60;2.80;;;7.10;99.90;;;;;;4908414;28;20402;-76
2023/01/14 00:29:20;;;;;;;10.27;4.90;;;7.10;99.90;;;;;;4907477;29;20102;-76
2023/01/14 00:31:46;;;;;;;10.13;4.07;;;7.20;99.90;;;;;;4907442;29;21501;-76
2023/01/14 00:34:13;;;;;;;7.38;2.92;;;7.20;99.90;;;;;;4919190;29;20502;-77
2023/01/14 00:36:38;;;;;;;25.27;3.08;;;7.20;99.90;;;;;;4923141;29;20065;-78
2023/01/14 00:39:04;;;;;;;5.50;3.80;;;7.20;99.90;;;;;;4921054;29;20070;-78
2023/01/14 00:41:30;;;;;;;12.32;4.00;;;7.20;99.90;;;;;;4907273;29;20134;-78
2023/01/14 00:43:59;;;;;;;9.85;4.60;;;7.20;99.90;;;;;;4906731;29;20066;-77
2023/01/14 00:46:30;;;;;;;9.27;3.72;;;7.20;99.90;;;;;;4911657;29;20050;-76
2023/01/14 00:48:58;;;;;;;11.98;3.42;;;7.20;99.90;;;;;;4922529;29;20094;-77
2023/01/14 00:51:24;;;;;;;13.48;3.88;;;7.20;99.90;;;;;;4923437;29;20125;-76
2023/01/14 00:53:49;;;;;;;6.43;2.53;;;7.20;99.90;;;;;;4921280;28;20036;-78
2023/01/14 00:56:18;;;;;;;26.33;4.30;;;7.20;99.90;;;;;;4905664;29;20043;-78
2023/01/14 00:58:43;;;;;;;21.08;6.70;;;7.20;99.90;;;;;;4923939;28;20039;-78
2023/01/14 01:01:09;;;;;;;7.20;3.90;;;7.20;99.90;;;;;;4889861;29;20443;-77
2023/01/14 01:03:41;;;;;;;13.38;5.63;;;7.20;99.90;;;;;;4906779;29;20047;-77
2023/01/14 01:06:07;;;;;;;11.60;3.85;;;7.30;99.90;;;;;;4905309;29;20262;-78
2023/01/14 01:08:33;;;;;;;19.55;4.18;;;7.20;99.90;;;;;;4905644;29;20044;-76
2023/01/14 01:10:59;;;;;;;8.98;3.63;;;7.30;99.90;;;;;;4919779;29;20154;-78
2023/01/14 01:13:25;;;;;;;9.93;4.38;;;7.20;99.90;;;;;;4906272;28;20119;-77
2023/01/14 01:15:52;;;;;;;9.13;3.95;;;7.20;99.90;;;;;;4906257;28;20036;-78
2023/01/14 01:18:19;;;;;;;12.98;4.50;;;7.20;99.90;;;;;;4907972;29;20044;-77
2023/01/14 01:20:45;;;;;;;6.05;2.67;;;7.20;99.90;;;;;;4907865;29;20032;-75
2023/01/14 01:23:14;;;;;;;15.48;2.95;;;7.20;99.90;;;;;;4921941;29;20516;-77
2023/01/14 01:25:40;;;;;;;17.33;6.07;;;7.20;99.90;;;;;;4921962;29;20024;-76
2023/01/14 01:28:06;;;;;;;12.27;3.63;;;7.20;99.90;;;;;;4907775;29;20044;-78
2023/01/14 01:30:32;;;;;;;12.90;4.38;;;7.20;99.90;;;;;;4907446;29;20071;-78
2023/01/14 01:32:58;;;;;;;13.55;3.92;;;7.30;99.90;;;;;;4905816;29;20075;-78
2023/01/14 01:35:24;;;;;;;14.68;2.60;;;7.20;99.90;;;;;;4906367;29;20036;-76
2023/01/14 01:37:51;;;;;;;9.98;3.97;;;7.20;99.90;;;;;;4911812;29;20044;-77
2023/01/14 01:40:17;;;;;;;15.10;4.13;;;7.20;99.90;;;;;;4921056;29;20118;-78
2023/01/14 01:42:55;;;;;;;22.77;4.68;;;7.20;99.90;;;;;;4906132;29;20115;-77
2023/01/14 01:45:27;;;;;;;13.02;3.60;;;7.20;99.90;;;;;;4910212;29;20426;-77
2023/01/14 01:48:03;;;;;;;21.42;3.67;;;7.20;99.90;;;;;;4907304;29;20095;-78
2023/01/14 01:50:29;;;;;;;15.52;4.55;;;7.30;99.90;;;;;;4907364;29;20058;-77
2023/01/14 01:52:55;;;;;;;33.47;6.22;;;7.30;99.90;;;;;;4904886;29;20448;-78
2023/01/14 01:55:21;;;;;;;14.95;4.00;;;7.20;99.90;;;;;;4919087;28;21275;-78
2023/01/14 01:57:55;;;;;;;12.68;3.80;;;7.20;99.90;;;;;;4907384;29;20478;-76
2023/01/14 02:00:22;;;;;;;13.40;4.13;;;7.20;99.90;;;;;;4988363;28;20123;-78
2023/01/14 02:02:49;;;;;;;10.43;3.47;;;7.20;99.90;;;;;;4904311;28;20064;-78
2023/01/14 02:05:15;;;;;;;11.52;3.85;;;7.20;99.90;;;;;;4906424;29;20123;-77
2023/01/14 02:07:43;;;;;;;15.68;5.32;;;7.20;99.90;;;;;;4905870;29;20050;-77
2023/01/14 02:10:09;;;;;;;9.35;3.72;;;7.20;99.90;;;;;;4905920;29;20060;-77
2023/01/14 02:12:36;;;;;;;8.15;3.45;;;7.20;99.90;;;;;;4907880;29;20051;-77
2023/01/14 02:15:10;;;;;;;16.48;3.80;;;7.20;99.90;;;;;;4906606;29;20142;-78
2023/01/14 02:17:55;;;;;;;15.20;5.38;;;7.20;99.90;;;;;;4920900;29;20039;-75
2023/01/14 02:20:28;;;;;;;9.05;3.38;;;7.20;99.90;;;;;;4919621;29;20048;-77
2023/01/14 02:23:24;;;;;;;15.55;4.50;;;7.20;99.90;;;;;;4920385;29;20044;-77
2023/01/14 02:26:11;;;;;;;14.60;4.55;;;7.10;99.90;;;;;;4921485;28;20038;-76
2023/01/14 02:28:58;;;;;;;5.93;3.67;;;7.10;99.90;;;;;;4906100;29;20047;-77
2023/01/14 02:31:44;;;;;;;16.13;5.07;;;7.10;99.90;;;;;;4918985;29;20044;-78
2023/01/14 02:34:16;;;;;;;14.73;5.05;;;7.10;99.90;;;;;;4920022;29;20039;-78
2023/01/14 02:37:08;;;;;;;8.13;3.78;;;7.10;99.90;;;;;;4921168;29;20036;-78
2023/01/14 02:39:39;;;;;;;8.03;3.73;;;7.10;99.90;;;;;;4918548;28;20520;-78
2023/01/14 02:45:27;;;;;;;6.28;3.35;;;7.10;99.90;;;;;;4920192;29;20343;-78
2023/01/14 02:47:53;;;;;;;6.95;3.33;;;7.10;99.90;;;;;;4906330;29;20044;-77
2023/01/14 02:50:19;;;;;;;11.55;5.32;;;7.10;99.90;;;;;;4905211;29;20533;-78
2023/01/14 02:52:46;;;;;;;11.70;3.83;;;7.10;99.90;;;;;;4905381;29;20283;-78
2023/01/14 02:55:36;;;;;;;11.52;4.47;;;7.10;99.90;;;;;;4904662;29;20513;-77
2023/01/14 02:58:36;;;;;;;14.32;3.67;;;7.10;99.90;;;;;;4918573;29;20059;-77
2023/01/14 03:01:20;;;;;;;12.85;4.35;;;7.10;99.90;;;;;;4917493;28;20055;-78
2023/01/14 03:03:57;;;;;;;7.97;4.38;;;7.00;99.90;;;;;;4921442;29;20043;-78
2023/01/14 03:06:57;;;;;;;6.72;4.10;;;7.00;99.90;;;;;;4911425;29;20123;-76
2023/01/14 03:09:52;;;;;;;24.13;3.67;;;7.00;99.90;;;;;;4919152;29;20047;-77
2023/01/14 03:12:41;;;;;;;5.45;2.70;;;6.90;99.90;;;;;;4919800;29;20044;-76
2023/01/14 03:15:21;;;;;;;15.88;4.43;;;6.90;99.90;;;;;;4920431;29;20047;-77
2023/01/14 03:18:01;;;;;;;25.58;5.72;;;6.80;99.90;;;;;;4917716;28;20044;-76
2023/01/14 03:20:31;;;;;;;5.95;3.30;;;6.80;99.90;;;;;;4917424;29;20379;-77
2023/01/14 03:23:01;;;;;;;13.65;3.25;;;6.70;99.90;;;;;;4920260;29;20050;-78
2023/01/14 03:25:30;;;;;;;11.07;3.40;;;6.70;99.90;;;;;;4919327;28;20612;-77
2023/01/14 03:27:58;;;;;;;9.77;3.97;;;6.60;99.90;;;;;;4910434;29;20047;-77
2023/01/14 03:30:31;;;;;;;10.80;3.22;;;6.60;99.90;;;;;;4920358;29;20104;-78
2023/01/14 03:33:04;;;;;;;23.30;5.10;;;6.60;99.90;;;;;;4919648;29;20043;-75
2023/01/14 03:35:36;;;;;;;10.23;4.18;;;6.50;99.90;;;;;;4918879;28;20048;-77
2023/01/14 03:38:06;;;;;;;;;;;6.50;99.90;;;;;;4903967;29;20699;-77
2023/01/14 03:40:34;;;;;;;6.55;3.50;;;6.40;99.90;;;;;;4905385;28;20338;-77
2023/01/14 03:43:23;;;;;;;10.00;3.50;;;6.40;99.90;;;;;;4904226;29;20040;-78
2023/01/14 03:45:49;;;;;;;12.77;3.25;;;6.40;99.90;;;;;;4920066;28;20440;-77
2023/01/14 03:48:15;;;;;;;7.65;3.00;;;6.40;99.90;;;;;;4920519;29;20135;-77
2023/01/14 03:50:58;;;;;;;11.57;3.95;;;6.40;99.90;;;;;;4918894;28;20045;-77
2023/01/14 03:53:35;;;;;;;16.60;4.03;;;6.30;99.90;;;;;;4917488;29;20410;-76
2023/01/14 03:56:21;;;;;;;9.32;3.50;;;6.30;99.90;;;;;;4918927;28;20086;-77
2023/01/14 03:59:05;;;;;;;6.90;3.20;;;6.30;99.90;;;;;;4921167;28;20507;-77
2023/01/14 04:01:39;;;;;;;11.15;3.33;;;6.30;99.90;;;;;;4920631;28;20047;-77
2023/01/14 04:04:06;;;;;;;26.55;5.45;;;6.30;99.90;;;;;;4923692;28;20079;-76
2023/01/14 04:06:32;;;;;;;15.57;3.35;;;6.30;99.90;;;;;;4921772;29;20039;-76
2023/01/14 04:08:57;;;;;;;8.98;3.28;;;6.20;99.90;;;;;;4920925;29;20059;-77
2023/01/14 04:11:23;;;;;;;13.13;3.83;;;6.20;99.90;;;;;;4923228;29;20048;-78
2023/01/14 04:16:32;;;;;;;7.50;3.25;;;6.20;99.90;;;;;;4907317;29;20114;-77
2023/01/14 04:18:58;;;;;;;23.58;4.18;;;6.20;99.90;;;;;;4907903;29;20090;-76
2023/01/14 04:21:24;;;;;;;9.55;4.22;;;6.10;99.90;;;;;;4907909;29;20032;-77
2023/01/14 04:23:49;;;;;;;8.80;2.58;;;6.10;99.90;;;;;;4906222;29;20044;-77
2023/01/14 04:26:15;;;;;;;13.55;3.65;;;6.10;99.90;;;;;;4908781;29;20044;-78
2023/01/14 04:28:40;;;;;;;14.05;3.67;;;6.10;99.90;;;;;;4908013;29;20048;-76
2023/01/14 04:31:06;;;;;;;13.77;3.38;;;6.10;99.90;;;;;;4906920;29;20513;-76
2023/01/14 04:33:31;;;;;;;8.77;3.88;;;6.10;99.90;;;;;;4921764;29;20039;-77
2023/01/14 04:35:57;;;;;;;17.33;3.63;;;6.10;99.90;;;;;;4922991;28;20430;-78
2023/01/14 04:38:23;;;;;;;10.48;3.65;;;6.10;99.90;;;;;;4919815;28;20070;-77
2023/01/14 04:40:54;;;;;;;5.03;3.58;;;6.10;99.90;;;;;;4922104;29;20059;-76
2023/01/14 04:43:21;;;;;;;21.23;4.50;;;6.10;99.90;;;;;;4909352;28;20048;-75
2023/01/14 04:45:52;;;;;;;15.18;4.38;;;6.10;99.90;;;;;;4915582;29;20032;-75
2023/01/14 04:48:20;;;;;;;11.52;5.85;;;6.10;99.90;;;;;;4906195;29;20040;-75
2023/01/14 04:50:47;;;;;;;7.78;3.88;;;6.10;99.90;;;;;;4907546;29;20421;-76
2023/01/14 04:53:15;;;;;;;3.67;2.70;;;6.10;99.90;;;;;;4907227;29;20131;-76
2023/01/14 04:55:43;;;;;;;11.10;3.72;;;6.10;99.90;;;;;;4906908;29;20055;-77
2023/01/14 04:58:10;;;;;;;9.85;3.75;;;6.10;99.90;;;;;;4908224;28;20156;-77
2023/01/14 05:00:37;;;;;;;34.92;4.70;;;6.10;99.90;;;;;;4920911;29;20253;-77
2023/01/14 05:03:04;;;;;;;7.93;3.22;;;6.10;99.90;;;;;;4906537;29;20071;-77
2023/01/14 05:05:30;;;;;;;6.03;2.63;;;6.10;99.90;;;;;;4914977;29;20040;-75
2023/01/14 05:07:56;;;;;;;14.27;3.63;;;6.10;99.90;;;;;;4905730;29;20044;-76
2023/01/14 05:10:22;;;;;;;26.38;4.43;;;6.10;99.90;;;;;;4906925;28;20509;-75
2023/01/14 05:12:56;;;;;;;6.65;3.15;;;6.10;99.90;;;;;;4906921;29;20036;-77
2023/01/14 05:15:28;;;;;;;5.60;2.03;;;6.10;99.90;;;;;;4920637;29;20131;-75
2023/01/14 05:17:54;;;;;;;12.50;3.40;;;6.10;99.90;;;;;;4912205;28;20192;-77
2023/01/14 05:20:20;;;;;;;15.65;4.53;;;6.10;99.90;;;;;;4922804;29;20549;-76
2023/01/14 05:22:46;;;;;;;16.65;3.70;;;6.10;99.90;;;;;;4922684;28;20036;-77
2023/01/14 05:25:11;;;;;;;8.13;4.07;;;6.10;99.90;;;;;;4920653;29;20031;-77
2023/01/14 05:27:37;;;;;;;9.57;4.13;;;6.10;99.90;;;;;;4922549;29;20773;-77
2023/01/14 05:30:04;;;;;;;12.20;5.18;;;6.10;99.90;;;;;;4922651;29;20058;-75
2023/01/14 05:32:30;;;;;;;17.98;3.83;;;6.10;99.90;;;;;;4922103;28;20048;-77
2023/01/14 05:34:55;;;;;;;6.53;3.85;;;6.10;99.90;;;;;;4922349;29;20456;-76
2023/01/14 05:37:21;;;;;;;29.25;4.70;;;6.20;99.90;;;;;;4919007;29;20289;-77
2023/01/14 05:39:46;;;;;;;21.20;4.72;;;6.20;99.90;;;;;;4906337;28;20137;-76
2023/01/14 05:47:41;;;;;;;7.60;3.35;;;6.20;99.90;;;;;;4907556;29;20055;-76
2023/01/14 05:50:10;;;;;;;8.15;3.03;;;6.10;99.90;;;;;;4905985;29;20044;-77
2023/01/14 05:52:35;;;;;;;10.27;2.88;;;6.10;99.90;;;;;;4908645;29;20033;-77
2023/01/14 05:55:01;;;;;;;19.45;3.58;;;6.10;99.90;;;;;;4906631;29;20466;-77
2023/01/14 05:57:26;;;;;;;6.75;3.00;;;6.10;99.90;;;;;;4907398;28;20068;-77
2023/01/14 05:59:52;;;;;;;6.75;4.05;;;6.10;99.90;;;;;;4906055;29;20051;-76
2023/01/14 06:07:46;;;;;;;5.13;3.35;;;6.00;99.90;;;;;;4904430;29;20087;-79
2023/01/14 06:10:12;;;;;;;12.68;3.92;;;6.00;99.90;;;;;;4907555;29;20454;-78
2023/01/14 06:15:21;;;;;;;12.77;3.70;;;6.00;99.90;;;;;;4922134;29;20283;-79
2023/01/14 06:17:57;;;;;;;13.77;3.65;;;6.00;99.90;;;;;;4916272;29;20040;-75
2023/01/14 06:20:23;;;;;;;12.02;4.75;;;6.00;99.90;;;;;;4913651;29;20266;-77
2023/01/14 06:22:48;;;;;;;6.88;3.53;;;6.00;99.90;;;;;;4919354;28;20139;-77
2023/01/14 06:25:14;;;;;;;11.82;4.47;;;6.00;99.90;;;;;;4924996;29;20050;-76
2023/01/14 06:27:39;;;;;;;15.63;4.47;;;6.00;99.90;;;;;;4924285;28;20469;-78
2023/01/14 06:30:06;;;;;;;6.28;3.55;;;6.00;99.90;;;;;;4923726;29;20548;-77
2023/01/14 06:32:33;;;;;;;13.02;3.17;;;6.10;99.90;;;;;;4917048;29;20072;-77
2023/01/14 06:34:59;;;;;;;11.55;3.15;;;6.10;99.90;;;;;;4918014;28;20711;-77
2023/01/14 06:37:25;;;;;;;10.82;5.25;;;6.10;99.90;;;;;;4919329;29;20135;-77
2023/01/14 06:39:50;;;;;;;16.92;3.17;;;6.10;99.90;;;;;;4919408;28;20509;-78
2023/01/14 06:42:16;;;;;;;17.00;4.68;;;6.10;99.90;;;;;;4918964;29;20043;-77
2023/01/14 06:44:41;;;;;;;16.63;4.85;;;6.10;99.90;;;;;;4905287;28;20051;-78
2023/01/14 06:47:07;;;;;;;17.55;4.25;;;6.00;99.90;;;;;;4905336;29;20051;-76
2023/01/14 06:49:32;;;;;;;14.23;4.90;;;6.00;99.90;;;;;;4906568;29;20062;-78
2023/01/14 06:51:59;;;;;;;22.10;5.38;;;6.00;99.90;;;;;;4904239;28;20388;-77
2023/01/14 06:54:24;;;;;;;15.98;4.57;;;6.00;99.90;;;;;;4905211;29;20576;-77
2023/01/14 06:56:50;;;;;;;21.30;4.55;;;6.00;99.90;;;;;;4906203;29;20047;-76
2023/01/14 06:59:15;;;;;;;23.25;6.43;;;6.10;99.90;;;;;;4913421;28;20528;-76
2023/01/14 07:01:41;;;;;;;13.23;4.97;;;6.10;99.90;;;;;;4921007;29;20054;-78
2023/01/14 07:04:06;;;;;;;11.98;5.68;;;6.10;99.90;;;;;;4921194;28;20654;-75
2023/01/14 07:06:32;;;;;;;23.38;5.30;;;6.10;99.90;;;;;;4918694;29;20067;-76
2023/01/14 07:08:58;;;;;;;12.85;6.68;;;6.10;99.90;;;;;;4909573;28;20052;-78
2023/01/14 07:11:23;;;;;;;16.23;8.57;;;6.10;99.90;;;;;;4904727;29;20127;-78
2023/01/14 07:13:49;;;;;;;15.85;7.00;;;6.10;99.90;;;;;;4905613;29;20048;-77
2023/01/14 07:16:14;;;;;;;19.98;8.35;;;6.10;99.90;;;;;;4905226;29;20036;-79
2023/01/14 07:18:40;;;;;;;20.45;7.55;;;6.10;99.90;;;;;;4904462;29;20560;-76
2023/01/14 07:21:05;;;;;;;20.77;7.10;;;6.10;99.90;;;;;;4904304;29;20083;-79
2023/01/14 07:23:31;;;;;;;21.58;6.93;;;6.10;99.90;;;;;;4903531;29;20240;-78
2023/01/14 07:25:57;;;;;;;15.93;8.35;;;6.10;99.90;;;;;;4904412;28;20036;-76
2023/01/14 07:28:24;;;;;;;17.70;8.43;;;6.10;99.90;;;;;;4905102;29;20147;-76
2023/01/14 07:30:51;;;;;;;22.88;8.20;;;6.10;99.90;;;;;;4904254;29;20179;-77
2023/01/14 07:33:17;;;;;;;26.75;6.15;;;6.10;99.90;;;;;;4904756;28;20575;-78
2023/01/14 07:35:44;;;;;;;24.63;7.75;;;6.10;99.90;;;;;;4887744;28;20047;-79
2023/01/14 07:38:10;;;;;;;13.75;5.78;;;6.10;99.90;;;;;;4916646;29;20485;-78
2023/01/14 07:40:44;;;;;;;21.45;6.35;;;6.20;99.90;;;;;;4906090;29;20059;-77
2023/01/14 07:43:10;;;;;;;13.07;6.72;;;6.20;99.90;;;;;;4919342;29;20097;-75
2023/01/14 07:45:35;;;;;;;13.07;5.95;;;6.20;99.90;;;;;;4920726;28;20075;-77
2023/01/14 07:48:01;;;;;;;25.73;5.82;;;6.20;99.90;;;;;;4910744;29;20056;-77
2023/01/14 07:50:26;;;;;;;17.25;7.10;;;6.20;99.90;;;;;;4920758;29;20489;-78
2023/01/14 07:52:56;;;;;;;20.05;6.75;;;6.20;99.90;;;;;;4916862;29;20494;-75
2023/01/14 07:55:26;;;;;;;18.40;6.30;;;6.20;99.90;;;;;;4906106;29;20032;-78
2023/01/14 07:57:52;;;;;;;12.02;7.00;;;6.20;99.90;;;;;;4918239;29;21101;-77
2023/01/14 08:00:19;;;;;;;19.00;5.68;;;6.20;99.90;;;;;;4919362;29;20112;-78
2023/01/14 08:02:45;;;;;;;19.02;5.72;;;6.20;99.90;;;;;;4919492;29;20522;-77
2023/01/14 08:05:11;;;;;;;30.42;8.63;;;6.20;99.90;;;;;;4919947;28;20079;-78
2023/01/14 08:07:37;;;;;;;14.85;7.10;;;6.20;99.90;;;;;;4918104;29;20095;-77
2023/01/14 08:10:03;;;;;;;13.73;6.93;;;6.20;99.90;;;;;;4920659;29;20051;-78
2023/01/14 08:12:31;;;;;;;30.25;7.70;;;6.20;99.90;;;;;;4919614;28;20054;-78
2023/01/14 08:14:58;;;;;;;19.42;6.18;;;6.10;99.90;;;;;;4918773;29;20278;-76
2023/01/14 08:17:23;;;;;;;14.48;5.78;;;6.20;99.90;;;;;;4921054;29;20032;-78
2023/01/14 08:19:49;;;;;;;15.55;5.03;;;6.20;99.90;;;;;;4918478;29;20102;-78
2023/01/14 08:22:15;;;;;;;26.55;5.25;;;6.20;99.90;;;;;;4919312;29;20085;-78
2023/01/14 08:24:40;;;;;;;11.50;4.18;;;6.20;99.90;;;;;;4919530;28;20032;-77
2023/01/14 08:27:06;;;;;;;24.08;6.50;;;6.20;99.90;;;;;;4912319;29;20092;-77
2023/01/14 08:29:32;;;;;;;22.52;4.90;;;6.20;99.90;;;;;;4903678;29;20135;-79
2023/01/14 08:31:57;;;;;;;9.40;5.05;;;6.20;99.90;;;;;;4903505;28;20403;-77
2023/01/14 08:34:24;;;;;;;14.48;4.38;;;6.20;99.90;;;;;;4909667;29;20490;-76
2023/01/14 08:36:50;;;;;;;16.95;5.00;;;6.20;99.90;;;;;;4908951;29;20036;-77
2023/01/14 08:39:16;;;;;;;13.85;4.15;;;6.20;99.90;;;;;;4913399;29;20051;-77
2023/01/14 08:41:42;;;;;;;16.20;3.58;;;6.20;99.90;;;;;;4919789;29;20307;-77
2023/01/14 08:44:09;;;;;;;16.00;5.18;;;6.20;99.90;;;;;;4919791;28;20497;-76
2023/01/14 08:46:35;;;;;;;12.15;5.28;;;6.20;99.90;;;;;;4924466;29;20036;-78
2023/01/14 08:49:00;;;;;;;17.42;4.78;;;6.20;99.90;;;;;;4925376;29;20052;-78
2023/01/14 08:51:28;;;;;;;16.52;4.40;;;6.20;99.90;;;;;;4925175;29;20402;-78
2023/01/14 08:54:00;;;;;;;20.83;5.35;;;6.20;99.90;;;;;;4925951;29;20421;-77
2023/01/14 08:56:26;;;;;;;;;;;6.20;99.90;;;;;;4927213;29;20213;-78
2023/01/14 08:58:52;;;;;;;8.23;4.10;;;6.20;99.90;;;;;;4924556;29;19976;-76
2023/01/14 09:01:18;;;;;;;21.08;5.82;;;6.20;99.90;;;;;;4925534;29;20059;-77
2023/01/14 09:03:45;;;;;;;7.18;3.42;;;6.20;99.90;;;;;;4926310;28;20040;-76
2023/01/14 09:06:13;;;;;;;25.63;6.35;;;6.20;99.90;;;;;;4926250;28;20043;-78
2023/01/14 09:17:12;;;;;;;16.50;4.15;;;6.20;99.90;;;;;;4916041;28;20426;-77
2023/01/14 09:19:53;;;;;;;27.85;5.97;;;6.30;99.90;;;;;;4923372;29;20114;-77
2023/01/14 09:22:25;;;;;;;19.08;3.85;;;6.30;99.90;;;;;;4921848;29;20047;-79
2023/01/14 09:24:51;;;;;;;10.10;3.88;;;6.20;99.90;;;;;;4920924;29;20047;-78
2023/01/14 09:27:18;;;;;;;10.45;3.65;;;6.30;99.90;;;;;;4923172;29;20521;-77
2023/01/14 09:29:44;;;;;;;9.43;4.65;;;6.30;99.90;;;;;;4913421;28;20059;-80
2023/01/14 09:32:12;;;;;;;10.18;5.00;;;6.30;99.90;;;;;;4917069;29;20449;-76
2023/01/14 09:34:39;;;;;;;11.82;4.45;;;6.30;99.90;;;;;;4919667;29;20043;-77
2023/01/14 09:37:05;;;;;;;20.45;4.43;;;6.30;99.90;;;;;;4923346;28;20502;-76
2023/01/14 09:39:31;;;;;;;10.98;3.42;;;6.30;99.90;;;;;;4923514;29;20051;-77
2023/01/14 09:41:59;;;;;;;11.55;2.55;;;6.30;99.90;;;;;;4920316;29;20043;-76
2023/01/14 09:44:26;;;;;;;8.35;3.20;;;6.30;99.90;;;;;;4925297;28;20051;-77
2023/01/14 09:46:52;;;;;;;7.90;3.58;;;6.30;99.90;;;;;;4924749;29;20611;-77
2023/01/14 09:49:22;;;;;;;15.23;4.35;;;6.30;99.90;;;;;;4925444;29;20044;-77
2023/01/14 09:52:31;;;;;;;10.15;2.80;;;6.30;99.90;;;;;;4924243;29;20162;-77
2023/01/14 09:55:10;;;;;;;9.10;2.53;;;6.30;99.90;;;;;;4924990;28;20051;-76
2023/01/14 09:58:02;;;;;;;9.77;2.67;;;6.30;99.90;;;;;;4923134;29;20117;-77
2023/01/14 10:00:30;;;;;;;8.90;3.13;;;6.40;99.90;;;;;;4923530;28;20047;-77
2023/01/14 10:03:20;;;;;;;5.82;2.45;;;6.40;99.90;;;;;;4968554;28;20288;-78
2023/01/14 10:05:56;;;;;;;5.40;2.22;;;6.40;99.90;;;;;;4919176;29;20075;-78
2023/01/14 10:08:25;;;;;;;3.05;2.13;;;6.40;99.90;;;;;;4923593;29;20125;-77
2023/01/14 10:10:51;;;;;;;5.25;2.78;;;6.40;99.90;;;;;;4922633;28;20071;-79
2023/01/14 10:13:25;;;;;;;10.18;3.35;;;6.40;99.90;;;;;;4924879;29;20205;-80
2023/01/14 10:16:02;;;;;;;4.35;2.55;;;6.40;99.90;;;;;;4931528;28;20039;-82
2023/01/14 10:18:48;;;;;;;26.75;3.10;;;6.40;99.90;;;;;;4977205;28;20053;-82
2023/01/14 10:21:25;;;;;;;3.88;1.83;;;6.50;99.90;;;;;;4923386;29;20043;-81
2023/01/14 10:23:52;;;;;;;3.33;2.28;;;6.40;99.90;;;;;;4964500;28;20057;-82
2023/01/14 10:26:20;;;;;;;5.38;2.30;;;6.50;99.90;;;;;;4958131;28;20048;-83
2023/01/14 10:28:49;;;;;;;6.15;2.85;;;6.60;99.90;;;;;;4925177;29;20564;-79
2023/01/14 10:31:24;;;;;;;10.60;2.47;;;6.60;99.90;;;;;;4923946;29;20047;-79
2023/01/14 10:33:49;;;;;;;8.32;2.38;;;6.60;99.90;;;;;;4923701;29;20520;-79
2023/01/14 10:36:18;;;;;;;4.55;2.15;;;6.60;99.90;;;;;;4906114;29;20132;-81
2023/01/14 10:38:44;;;;;;;7.18;2.35;;;6.60;99.90;;;;;;4971913;28;20038;-81
2023/01/14 10:41:11;;;;;;;3.38;1.65;;;6.70;99.90;;;;;;4923554;28;20548;-81
2023/01/14 10:43:55;;;;;;;7.72;1.83;;;6.70;99.90;;;;;;4926885;28;20040;-89
2023/01/14 10:46:30;;;;;;;3.10;1.80;;;6.70;99.90;;;;;;4904914;28;20086;-82
2023/01/14 10:49:26;;;;;;;2.60;1.95;;;6.80;99.90;;;;;;4938053;29;20051;-83
2023/01/14 10:51:52;;;;;;;3.70;1.70;;;6.80;99.90;;;;;;4933985;28;20135;-79
2023/01/14 10:54:25;;;;;;;6.65;2.42;;;6.70;99.90;;;;;;4924909;29;20110;-85
2023/01/14 10:57:15;;;;;;;9.02;2.55;;;6.80;99.90;;;;;;4913350;29;20044;-81
2023/01/14 10:59:50;;;;;;;2.67;1.77;;;6.80;99.90;;;;;;4904993;28;20299;-80
2023/01/14 11:02:33;;;;;;;2.53;2.15;;;6.80;99.90;;;;;;4945857;28;20052;-78
2023/01/14 11:04:59;;;;;;;3.92;2.45;;;6.80;99.90;;;;;;4923410;29;20098;-81
2023/01/14 11:07:33;;;;;;;3.63;1.98;;;6.80;99.90;;;;;;4921899;28;20043;-80
2023/01/14 11:10:10;;;;;;;5.78;2.25;;;6.90;99.90;;;;;;4922650;28;20047;-82
2023/01/14 11:12:35;;;;;;;3.38;1.45;;;6.90;99.90;;;;;;4915488;29;20510;-82
2023/01/14 11:15:01;;;;;;;6.20;1.95;;;6.90;99.90;;;;;;4922705;29;20097;-78
2023/01/14 11:17:29;;;;;;;4.88;2.30;;;6.90;99.90;;;;;;4922070;29;20111;-77
2023/01/14 11:20:27;;;;;;;5.50;2.15;;;6.90;99.90;;;;;;4921969;29;20046;-77
2023/01/14 11:23:01;;;;;;;4.70;2.90;;;6.90;99.90;;;;;;4911192;29;20280;-78
2023/01/14 11:25:27;;;;;;;7.47;1.55;;;7.00;99.90;;;;;;4915525;29;20044;-78
2023/01/14 11:27:54;;;;;;;4.00;2.53;;;7.00;99.90;;;;;;4921176;28;20040;-77
2023/01/14 11:30:22;;;;;;;5.93;2.25;;;7.00;99.90;;;;;;4919596;29;20135;-78
2023/01/14 11:32:50;;;;;;;2.17;1.73;;;7.00;99.90;;;;;;4923095;29;20043;-78
2023/01/14 11:35:29;;;;;;;4.35;2.47;;;7.00;99.90;;;;;;4907083;29;20552;-78
2023/01/14 11:37:56;;;;;;;2.72;2.30;;;7.00;99.90;;;;;;4921388;29;20517;-78
2023/01/14 11:41:28;;;;;;;3.15;2.33;;;7.00;99.90;;;;;;4922843;29;20047;-77
2023/01/14 11:43:13;;;;;;;3.15;2.28;;;7.00;99.90;;;;;;4917615;29;20055;-78
2023/01/14 11:45:38;;;;;;;3.42;1.80;;;7.00;99.90;;;;;;4919798;28;21117;-78
2023/01/14 11:48:23;;;;;;;3.60;2.45;;;7.00;99.90;;;;;;4919524;29;20071;-80
2023/01/14 11:51:01;;;;;;;2.83;1.90;;;7.10;99.90;;;;;;4916819;29;20101;-82
2023/01/14 11:53:44;;;;;;;4.00;1.80;;;7.10;99.90;;;;;;4910052;29;20044;-80
2023/01/14 11:56:16;;;;;;;7.38;2.08;;;7.10;99.90;;;;;;4921833;29;20051;-84
2023/01/14 11:58:41;;;;;;;4.13;1.87;;;7.20;99.90;;;;;;4920805;28;20055;-85
2023/01/14 12:01:34;;;;;;;3.75;1.83;;;7.20;99.90;;;;;;4924708;28;20666;-81
2023/01/14 12:04:16;;;;;;;2.28;1.35;;;7.10;99.90;;;;;;4915774;28;20044;-79
2023/01/14 12:07:03;;;;;;;3.17;1.95;;;7.20;99.90;;;;;;4918994;29;20056;-77
2023/01/14 12:09:53;;;;;;;3.20;2.08;;;7.30;99.90;;;;;;4915876;29;20048;-79
2023/01/14 12:16:48;;;;;;;2.50;1.92;;;7.30;99.90;;;;;;4930062;29;20047;-84
2023/01/14 12:18:11;;;;;;;3.15;1.90;;;7.30;99.90;;;;;;4920073;29;20890;-81
2023/01/14 12:20:37;;;;;;;2.20;1.75;;;7.40;99.90;;;;;;4919545;29;20051;-86
2023/01/14 12:23:14;;;;;;;5.40;2.35;;;7.40;99.90;;;;;;4924884;28;20054;-85
2023/01/14 12:25:47;;;;;;;2.00;1.77;;;7.40;99.90;;;;;;4923276;29;20147;-81
2023/01/14 12:28:36;;;;;;;4.22;2.10;;;7.40;99.90;;;;;;4924758;28;20059;-81
2023/01/14 12:31:17;;;;;;;3.58;1.25;;;7.50;99.90;;;;;;4928157;29;20467;-84
2023/01/14 12:33:50;;;;;;;3.72;2.13;;;7.50;99.90;;;;;;4929603;29;20118;-83
2023/01/14 12:36:20;;;;;;;3.58;1.75;;;7.60;99.90;;;;;;4917071;29;20082;-82
2023/01/14 12:47:28;;;;;;;2.17;1.58;;;7.70;99.90;;;;;;4921734;29;20350;-83
2023/01/14 12:49:54;;;;;;;5.68;2.45;;;7.70;99.90;;;;;;4922287;28;20048;-88
2023/01/14 12:52:30;;;;;;;2.33;1.75;;;7.80;99.90;;;;;;4922949;29;20114;-89
2023/01/14 12:54:57;;;;;;;3.85;1.52;;;7.80;99.90;;;;;;4923976;29;20097;-79
2023/01/14 12:57:24;;;;;;;2.95;1.75;;;7.80;99.90;;;;;;4929635;29;20500;-80
2023/01/14 13:00:15;;;;;;;1.35;0.90;;;7.90;99.90;;;;;;4924562;28;20060;-81
2023/01/14 13:02:47;;;;;;;1.60;1.33;;;7.90;99.90;;;;;;4915088;29;20071;-78
2023/01/14 13:05:17;;;;;;;1.77;1.17;;;8.00;99.90;;;;;;4902329;29;20123;-84
2023/01/14 13:07:52;;;;;;;2.00;1.38;;;8.00;99.90;;;;;;4911928;28;20040;-77
2023/01/14 13:10:31;;;;;;;2.08;1.15;;;8.10;99.90;;;;;;4898047;29;20056;-77
2023/01/14 13:12:57;;;;;;;1.60;1.40;;;8.10;99.90;;;;;;4921792;28;20067;-77
2023/01/14 13:15:26;;;;;;;5.28;2.25;;;8.20;99.90;;;;;;4925758;29;20094;-78
2023/01/14 13:17:54;;;;;;;2.30;1.50;;;8.10;99.90;;;;;;4924819;28;20119;-77
2023/01/14 13:20:20;;;;;;;1.92;1.80;;;8.20;99.90;;;;;;4923909;28;20055;-78
2023/01/14 13:22:55;;;;;;;2.83;1.80;;;8.20;99.90;;;;;;4925103;28;20343;-76
2023/01/14 13:25:22;;;;;;;3.22;1.77;;;8.30;99.90;;;;;;4923221;29;20498;-78
2023/01/14 13:27:48;;;;;;;1.77;1.48;;;8.30;99.90;;;;;;4925095;29;20083;-78
2023/01/14 13:30:16;;;;;;;3.50;1.50;;;8.30;99.90;;;;;;4920494;28;20086;-77
2023/01/14 13:33:01;;;;;;;3.72;2.58;;;8.40;99.90;;;;;;4919958;28;20048;-78
2023/01/14 13:35:35;;;;;;;2.25;1.83;;;8.40;99.90;;;;;;4919984;29;20062;-78
2023/01/14 13:38:17;;;;;;;4.30;2.30;;;8.50;99.90;;;;;;4923673;28;20040;-78
2023/01/14 13:40:51;;;;;;;4.30;1.85;;;8.50;99.90;;;;;;4924132;28;20641;-77
2023/01/14 13:43:24;;;;;;;2.45;2.08;;;8.50;99.90;;;;;;4914476;29;20048;-77
2023/01/14 13:46:02;;;;;;;2.15;1.73;;;8.60;99.90;;;;;;4913225;29;20052;-77
2023/01/14 13:48:48;;;;;;;3.75;2.72;;;8.60;99.90;;;;;;4921651;28;20039;-77
2023/01/14 13:51:37;;;;;;;2.83;1.98;;;8.60;99.90;;;;;;4920341;29;20127;-76